createdAt,value
2014-06-22T14:59:25.722Z,101024
2014-06-22T14:59:43.050Z,101016
2014-06-22T14:59:56.677Z,101013
2014-06-22T15:00:46.881Z,101016
2014-06-22T15:01:05.461Z,101028
2014-06-22T15:02:16.525Z,101017
2014-06-22T15:03:05.465Z,101027
2014-06-22T15:03:22.558Z,101027
2014-06-22T15:03:40.793Z,101027
2014-06-22T15:03:57.777Z,101024
2014-06-22T15:04:14.764Z,101030
2014-06-22T15:04:32.357Z,101030
2014-06-22T15:04:49.951Z,101027
2014-06-22T15:05:07.560Z,101030
2014-06-22T15:05:25.781Z,101021
2014-06-22T15:05:43.391Z,101027
2014-06-22T15:06:01.625Z,101024
2014-06-22T15:06:19.220Z,101033
2014-06-22T15:06:37.438Z,101030
2014-06-22T15:06:55.673Z,101043
2014-06-22T15:07:13.910Z,101034
2014-06-22T15:07:31.520Z,101034
2014-06-22T15:07:48.473Z,101031
2014-06-22T15:08:06.707Z,101034
2014-06-22T15:08:24.943Z,101031
2014-06-22T15:08:42.678Z,101026
2014-06-22T15:09:00.272Z,101032
2014-06-22T15:09:18.507Z,101029
2014-06-22T15:09:36.101Z,101035
2014-06-22T15:09:54.335Z,101035
2014-06-22T15:10:11.319Z,101035
2014-06-22T15:10:29.541Z,101035
2014-06-22T15:10:47.776Z,101032
2014-06-22T15:11:06.010Z,101032
2014-06-22T15:11:24.371Z,101026
2014-06-22T15:11:42.606Z,101041
2014-06-22T15:12:00.371Z,101041
2014-06-22T15:12:48.983Z,101035
2014-06-22T15:13:06.576Z,101035
2014-06-22T15:13:24.797Z,101038
2014-06-22T15:13:42.625Z,101032
2014-06-22T15:14:00.922Z,101038
2014-06-22T15:14:18.612Z,101027
2014-06-22T15:14:36.362Z,101030
2014-06-22T15:14:53.330Z,101033
2014-06-22T15:15:11.002Z,101030
2014-06-22T15:15:29.253Z,101027
2014-06-22T15:15:46.300Z,101024
2014-06-22T15:16:04.550Z,101027
2014-06-22T15:16:22.177Z,101027
2014-06-22T15:16:40.458Z,101010
2014-06-22T15:16:58.693Z,101010
2014-06-22T15:17:16.914Z,101002
2014-06-22T15:17:33.382Z,101011
2014-06-22T15:17:50.367Z,101023
2014-06-22T15:18:08.679Z,101003
2014-06-22T15:18:26.884Z,101012
2014-06-22T15:18:44.494Z,101018
2014-06-22T15:19:01.634Z,101012
2014-06-22T15:19:19.855Z,101001
2014-06-22T15:19:38.089Z,101001
2014-06-22T15:19:56.418Z,101007
2014-06-22T15:20:13.605Z,101022
2014-06-22T15:20:33.061Z,101005
2014-06-22T15:20:49.389Z,101008
2014-06-22T15:21:07.671Z,101005
2014-06-22T15:21:24.735Z,101011
2014-06-22T15:21:41.782Z,101002
2014-06-22T15:21:59.376Z,101008
2014-06-22T15:22:17.626Z,101008
2014-06-22T15:22:36.034Z,101011
2014-06-22T15:22:53.753Z,101023
2014-06-22T15:23:11.346Z,101009
2014-06-22T15:23:28.971Z,101012
2014-06-22T15:23:46.566Z,101015
2014-06-22T15:24:04.847Z,101023
2014-06-22T15:24:21.832Z,101029
2014-06-22T15:24:40.068Z,101023
2014-06-22T15:24:57.162Z,101023
2014-06-22T15:25:14.818Z,101026
2014-06-22T15:25:32.412Z,101023
2014-06-22T15:25:50.695Z,101028
2014-06-22T15:26:08.930Z,101028
2014-06-22T15:26:26.539Z,101022
2014-06-22T15:26:42.964Z,101025
2014-06-22T15:27:00.636Z,101025
2014-06-22T15:27:18.354Z,101025
2014-06-22T15:27:36.589Z,101025
2014-06-22T15:27:53.059Z,101022
2014-06-22T15:28:10.074Z,101019
2014-06-22T15:28:27.684Z,101008
2014-06-22T15:28:45.951Z,101017
2014-06-22T15:29:04.357Z,101014
2014-06-22T15:29:21.561Z,101014
2014-06-22T15:29:39.889Z,101008
2014-06-22T15:29:58.156Z,101000
2014-06-22T15:30:15.875Z,101008
2014-06-22T15:30:32.297Z,101006
2014-06-22T15:30:50.110Z,101006
2014-06-22T15:31:07.767Z,101006
2014-06-22T15:31:25.532Z,100997
2014-06-22T15:31:43.817Z,100991
2014-06-22T15:32:02.192Z,101012
2014-06-22T15:32:19.801Z,101003
2014-06-22T15:32:37.520Z,101003
2014-06-22T15:32:55.319Z,101006
2014-06-22T15:33:13.678Z,101006
2014-06-22T15:33:30.850Z,101006
2014-06-22T15:33:49.086Z,101003
2014-06-22T15:34:06.789Z,100998
2014-06-22T15:34:24.539Z,101001
2014-06-22T15:34:42.336Z,101001
2014-06-22T15:34:59.307Z,101007
2014-06-22T15:35:17.541Z,101010
2014-06-22T15:35:35.182Z,101027
2014-06-22T15:35:52.371Z,101001
2014-06-22T15:36:09.981Z,101010
2014-06-22T15:36:28.325Z,100989
2014-06-22T15:36:46.575Z,100998
2014-06-22T15:37:04.794Z,101001
2014-06-22T15:37:23.044Z,101004
2014-06-22T15:37:41.419Z,100998
2014-06-22T15:37:59.015Z,101024
2014-06-22T15:38:15.999Z,101013
2014-06-22T15:38:33.671Z,101018
2014-06-22T15:38:51.299Z,101030
2014-06-22T15:39:09.018Z,101018
2014-06-22T15:39:27.346Z,101018
2014-06-22T15:39:45.065Z,101029
2014-06-22T15:40:03.613Z,101023
2014-06-22T15:40:21.847Z,101026
2014-06-22T15:40:39.644Z,101026
2014-06-22T15:40:58.021Z,101026
2014-06-22T15:41:15.677Z,101029
2014-06-22T15:41:33.302Z,101037
2014-06-22T15:41:51.571Z,101025
2014-06-22T15:42:08.821Z,101025
2014-06-22T15:42:26.415Z,101028
2014-06-22T15:42:44.680Z,101031
2014-06-22T15:43:02.291Z,101034
2014-06-22T15:43:19.931Z,101028
2014-06-22T15:43:38.213Z,101028
2014-06-22T15:43:56.449Z,101025
2014-06-22T15:44:14.074Z,101031
2014-06-22T15:44:33.293Z,101028
2014-06-22T15:44:51.513Z,101040
2014-06-22T15:45:09.748Z,101031
2014-06-22T15:45:27.545Z,101037
2014-06-22T15:45:45.748Z,101031
2014-06-22T15:46:03.562Z,101036
2014-06-22T15:46:21.781Z,101036
2014-06-22T15:46:39.390Z,101033
2014-06-22T15:46:56.408Z,101033
2014-06-22T15:47:14.080Z,101022
2014-06-22T15:47:31.111Z,101033
2014-06-22T15:47:48.721Z,101039
2014-06-22T15:48:06.316Z,101028
2014-06-22T15:48:23.926Z,101039
2014-06-22T15:48:41.582Z,101042
2014-06-22T15:48:58.662Z,101039
2014-06-22T15:49:16.912Z,101039
2014-06-22T15:49:34.600Z,101042
2014-06-22T15:49:52.210Z,101036
2014-06-22T15:50:09.804Z,101025
2014-06-22T15:50:27.444Z,101028
2014-06-22T15:50:45.710Z,101034
2014-06-22T15:51:02.759Z,101037
2014-06-22T15:51:20.368Z,101042
2014-06-22T15:52:00.371Z,101037
2014-06-22T15:52:17.965Z,101011
2014-06-22T15:52:36.293Z,101025
2014-06-22T15:52:53.888Z,101028
2014-06-22T15:53:12.122Z,101014
2014-06-22T15:53:30.388Z,101017
2014-06-22T15:53:48.622Z,101023
2014-06-22T15:54:06.437Z,101006
2014-06-22T15:54:24.671Z,101021
2014-06-22T15:54:42.280Z,101032
2014-06-22T15:55:00.548Z,101026
2014-06-22T15:55:18.954Z,101029
2014-06-22T15:55:36.673Z,101032
2014-06-22T15:55:54.317Z,101029
2014-06-22T15:56:12.114Z,101026
2014-06-22T15:56:28.535Z,101026
2014-06-22T15:56:46.207Z,101026
2014-06-22T15:57:04.428Z,101038
2014-06-22T15:57:22.741Z,101037
2014-06-22T15:57:40.366Z,101035
2014-06-22T15:57:58.351Z,101017
2014-06-22T15:58:16.070Z,101017
2014-06-22T15:58:33.195Z,101029
2014-06-22T15:58:49.603Z,101012
2014-06-22T15:59:07.197Z,101020
2014-06-22T15:59:24.228Z,101015
2014-06-22T15:59:42.509Z,101021
2014-06-22T15:59:59.605Z,101021
2014-06-22T16:00:17.371Z,101018
2014-06-22T16:00:35.605Z,101012
2014-06-22T16:00:53.248Z,101018
2014-06-22T16:01:10.888Z,101012
2014-06-22T16:01:28.732Z,101015
2014-06-22T16:01:46.466Z,101021
2014-06-22T16:02:04.030Z,101050
2014-06-22T16:02:22.342Z,101042
2014-06-22T16:02:40.014Z,101033
2014-06-22T16:02:56.970Z,101027
2014-06-22T16:03:14.627Z,101015
2014-06-22T16:03:31.798Z,101024
2014-06-22T16:03:49.361Z,101007
2014-06-22T16:04:07.582Z,101027
2014-06-22T16:04:25.847Z,101013
2014-06-22T16:04:43.582Z,101021
2014-06-22T16:05:01.818Z,101021
2014-06-22T16:05:19.427Z,101027
2014-06-22T16:05:37.021Z,101027
2014-06-22T16:05:54.633Z,101036
2014-06-22T16:06:11.601Z,101036
2014-06-22T16:06:29.195Z,101038
2014-06-22T16:06:46.804Z,101033
2014-06-22T16:07:05.024Z,101030
2014-06-22T16:07:23.259Z,101036
2014-06-22T16:07:40.852Z,101027
2014-06-22T16:07:59.089Z,101027
2014-06-22T16:08:17.307Z,101050
2014-06-22T16:08:34.917Z,101036
2014-06-22T16:08:52.651Z,101036
2014-06-22T16:09:09.622Z,101033
2014-06-22T16:09:26.591Z,101038
2014-06-22T16:09:44.825Z,101050
2014-06-22T16:10:03.187Z,101039
2014-06-22T16:10:21.422Z,101042
2014-06-22T16:10:39.031Z,101036
2014-06-22T16:10:56.626Z,101042
2014-06-22T16:11:14.860Z,101016
2014-06-22T16:11:32.454Z,101030
2014-06-22T16:11:50.688Z,101028
2014-06-22T16:12:08.331Z,101045
2014-06-22T16:12:26.565Z,101045
2014-06-22T16:12:44.159Z,101040
2014-06-22T16:13:01.146Z,101037
2014-06-22T16:13:18.739Z,101034
2014-06-22T16:13:36.974Z,101034
2014-06-22T16:13:55.208Z,101046
2014-06-22T16:14:12.804Z,101034
2014-06-22T16:14:31.038Z,101031
2014-06-22T16:14:49.257Z,101037
2014-06-22T16:15:06.868Z,101040
2014-06-22T16:15:25.103Z,101046
2014-06-22T16:15:42.712Z,101063
2014-06-22T16:16:00.321Z,101046
2014-06-22T16:16:17.933Z,101057
2014-06-22T16:16:35.527Z,101048
2014-06-22T16:16:52.511Z,101068
2014-06-22T16:17:10.747Z,101062
2014-06-22T16:17:26.466Z,101065
2014-06-22T16:17:44.700Z,101059
2014-06-22T16:18:01.669Z,101056
2014-06-22T16:18:19.906Z,101059
2014-06-22T16:18:37.499Z,101053
2014-06-22T16:18:55.109Z,101036
2014-06-22T16:19:13.329Z,101045
2014-06-22T16:19:30.939Z,101054
2014-06-22T16:19:48.548Z,101059
2014-06-22T16:20:06.142Z,101047
2014-06-22T16:20:24.519Z,101042
2014-06-22T16:20:42.738Z,101042
2014-06-22T16:21:00.972Z,101045
2014-06-22T16:21:19.208Z,101056
2014-06-22T16:21:37.427Z,101073
2014-06-22T16:21:55.662Z,101067
2014-06-22T16:22:13.896Z,101067
2014-06-22T16:22:32.117Z,101052
2014-06-22T16:22:50.351Z,101049
2014-06-22T16:23:08.585Z,101049
2014-06-22T16:23:26.195Z,101052
2014-06-22T16:23:43.789Z,101041
2014-06-22T16:24:01.398Z,101053
2014-06-22T16:24:19.133Z,101035
2014-06-22T16:24:37.535Z,101047
2014-06-22T16:24:55.144Z,101047
2014-06-22T16:25:13.363Z,101053
